sensor_id;sensor_type;location;lat;lon;timestamp;P1;durP1;ratioP1;P2;durP2;ratioP2
9657;SDS011;4867;48.112;11.622;2023-06-05T00:00:01;6.37;;;5.77;;
9657;SDS011;4867;48.112;11.622;2023-06-05T00:02:38;8.23;;;6.20;;
9657;SDS011;4867;48.112;11.622;2023-06-05T00:05:05;6.50;;;5.80;;
9657;SDS011;4867;48.112;11.622;2023-06-05T00:07:36;7.40;;;5.83;;
9657;SDS011;4867;48.112;11.622;2023-06-05T00:10:06;8.10;;;6.10;;
9657;SDS011;4867;48.112;11.622;2023-06-05T00:12:35;18.23;;;15.80;;
9657;SDS011;4867;48.112;11.622;2023-06-05T00:15:04;8.43;;;7.40;;
9657;SDS011;4867;48.112;11.622;2023-06-05T00:17:31;9.77;;;8.03;;
9657;SDS011;4867;48.112;11.622;2023-06-05T00:19:59;7.27;;;6.57;;
9657;SDS011;4867;48.112;11.622;2023-06-05T00:22:27;7.33;;;6.37;;
9657;SDS011;4867;48.112;11.622;2023-06-05T00:25:04;6.43;;;5.83;;
9657;SDS011;4867;48.112;11.622;2023-06-05T00:27:32;7.47;;;6.77;;
9657;SDS011;4867;48.112;11.622;2023-06-05T00:29:59;7.53;;;5.83;;
9657;SDS011;4867;48.112;11.622;2023-06-05T00:32:27;8.23;;;6.13;;
9657;SDS011;4867;48.112;11.622;2023-06-05T00:34:54;8.23;;;7.10;;
9657;SDS011;4867;48.112;11.622;2023-06-05T00:37:22;7.60;;;6.53;;
9657;SDS011;4867;48.112;11.622;2023-06-05T00:39:49;7.27;;;6.60;;
9657;SDS011;4867;48.112;11.622;2023-06-05T00:42:17;7.30;;;6.40;;
9657;SDS011;4867;48.112;11.622;2023-06-05T00:44:44;7.17;;;6.57;;
9657;SDS011;4867;48.112;11.622;2023-06-05T00:47:12;9.70;;;6.80;;
9657;SDS011;4867;48.112;11.622;2023-06-05T00:49:40;7.40;;;6.70;;
9657;SDS011;4867;48.112;11.622;2023-06-05T00:52:07;8.63;;;7.00;;
9657;SDS011;4867;48.112;11.622;2023-06-05T00:54:35;7.67;;;6.97;;
9657;SDS011;4867;48.112;11.622;2023-06-05T00:57:02;7.93;;;7.03;;
9657;SDS011;4867;48.112;11.622;2023-06-05T00:59:30;8.30;;;7.30;;
9657;SDS011;4867;48.112;11.622;2023-06-05T01:01:59;7.53;;;6.73;;
9657;SDS011;4867;48.112;11.622;2023-06-05T01:04:27;7.07;;;6.37;;
9657;SDS011;4867;48.112;11.622;2023-06-05T01:06:56;10.17;;;7.50;;
9657;SDS011;4867;48.112;11.622;2023-06-05T01:09:28;10.63;;;7.27;;
9657;SDS011;4867;48.112;11.622;2023-06-05T01:12:08;8.63;;;7.80;;
9657;SDS011;4867;48.112;11.622;2023-06-05T01:14:44;8.33;;;7.53;;
9657;SDS011;4867;48.112;11.622;2023-06-05T01:17:12;9.53;;;7.63;;
9657;SDS011;4867;48.112;11.622;2023-06-05T01:19:40;8.77;;;7.67;;
9657;SDS011;4867;48.112;11.622;2023-06-05T01:22:07;8.93;;;7.40;;
9657;SDS011;4867;48.112;11.622;2023-06-05T01:24:34;9.27;;;8.10;;
9657;SDS011;4867;48.112;11.622;2023-06-05T01:27:16;8.60;;;7.80;;
9657;SDS011;4867;48.112;11.622;2023-06-05T01:35:14;9.17;;;8.37;;
9657;SDS011;4867;48.112;11.622;2023-06-05T01:37:47;9.77;;;8.03;;
9657;SDS011;4867;48.112;11.622;2023-06-05T01:40:17;9.37;;;8.30;;
9657;SDS011;4867;48.112;11.622;2023-06-05T01:42:47;9.00;;;8.10;;
9657;SDS011;4867;48.112;11.622;2023-06-05T01:45:17;11.77;;;8.20;;
9657;SDS011;4867;48.112;11.622;2023-06-05T01:47:44;10.33;;;8.50;;
9657;SDS011;4867;48.112;11.622;2023-06-05T01:50:15;9.73;;;8.10;;
9657;SDS011;4867;48.112;11.622;2023-06-05T01:52:44;9.33;;;8.47;;
9657;SDS011;4867;48.112;11.622;2023-06-05T01:55:14;11.70;;;8.80;;
9657;SDS011;4867;48.112;11.622;2023-06-05T01:57:50;9.47;;;8.60;;
9657;SDS011;4867;48.112;11.622;2023-06-05T02:00:18;9.97;;;9.13;;
9657;SDS011;4867;48.112;11.622;2023-06-05T02:02:46;10.77;;;9.07;;
9657;SDS011;4867;48.112;11.622;2023-06-05T02:05:15;10.30;;;9.23;;
9657;SDS011;4867;48.112;11.622;2023-06-05T02:07:47;10.53;;;9.43;;
9657;SDS011;4867;48.112;11.622;2023-06-05T02:10:20;11.33;;;9.50;;
9657;SDS011;4867;48.112;11.622;2023-06-05T02:12:48;9.93;;;9.03;;
9657;SDS011;4867;48.112;11.622;2023-06-05T02:15:16;11.17;;;8.83;;
9657;SDS011;4867;48.112;11.622;2023-06-05T02:17:44;10.50;;;9.50;;
9657;SDS011;4867;48.112;11.622;2023-06-05T02:20:16;11.30;;;9.67;;
9657;SDS011;4867;48.112;11.622;2023-06-05T02:22:44;11.53;;;10.27;;
9657;SDS011;4867;48.112;11.622;2023-06-05T02:25:12;11.13;;;9.93;;
9657;SDS011;4867;48.112;11.622;2023-06-05T02:27:39;10.70;;;9.70;;
9657;SDS011;4867;48.112;11.622;2023-06-05T02:30:08;11.57;;;9.90;;
9657;SDS011;4867;48.112;11.622;2023-06-05T02:32:36;10.87;;;9.83;;
9657;SDS011;4867;48.112;11.622;2023-06-05T02:35:08;11.10;;;10.10;;
9657;SDS011;4867;48.112;11.622;2023-06-05T02:37:35;10.67;;;9.67;;
9657;SDS011;4867;48.112;11.622;2023-06-05T02:40:13;11.57;;;9.93;;
9657;SDS011;4867;48.112;11.622;2023-06-05T02:42:41;10.63;;;9.67;;
9657;SDS011;4867;48.112;11.622;2023-06-05T02:45:08;11.13;;;9.90;;
9657;SDS011;4867;48.112;11.622;2023-06-05T02:47:37;10.37;;;9.30;;
9657;SDS011;4867;48.112;11.622;2023-06-05T02:50:06;10.73;;;9.70;;
9657;SDS011;4867;48.112;11.622;2023-06-05T02:52:38;11.43;;;10.33;;
9657;SDS011;4867;48.112;11.622;2023-06-05T02:55:15;11.53;;;9.97;;
9657;SDS011;4867;48.112;11.622;2023-06-05T02:57:45;11.30;;;10.10;;
9657;SDS011;4867;48.112;11.622;2023-06-05T03:00:19;11.23;;;10.20;;
9657;SDS011;4867;48.112;11.622;2023-06-05T03:02:51;11.37;;;10.30;;
9657;SDS011;4867;48.112;11.622;2023-06-05T03:05:23;12.40;;;10.87;;
9657;SDS011;4867;48.112;11.622;2023-06-05T03:07:58;11.80;;;10.70;;
9657;SDS011;4867;48.112;11.622;2023-06-05T03:10:27;11.23;;;10.23;;
9657;SDS011;4867;48.112;11.622;2023-06-05T03:12:55;12.63;;;11.43;;
9657;SDS011;4867;48.112;11.622;2023-06-05T03:15:26;11.30;;;10.20;;
9657;SDS011;4867;48.112;11.622;2023-06-05T03:17:54;11.33;;;10.13;;
9657;SDS011;4867;48.112;11.622;2023-06-05T03:20:22;10.90;;;10.00;;
9657;SDS011;4867;48.112;11.622;2023-06-05T03:22:50;12.57;;;11.07;;
9657;SDS011;4867;48.112;11.622;2023-06-05T03:25:18;11.07;;;10.07;;
9657;SDS011;4867;48.112;11.622;2023-06-05T03:27:49;12.23;;;11.17;;
9657;SDS011;4867;48.112;11.622;2023-06-05T03:30:17;11.97;;;10.77;;
9657;SDS011;4867;48.112;11.622;2023-06-05T03:32:49;12.43;;;11.17;;
9657;SDS011;4867;48.112;11.622;2023-06-05T03:35:18;11.83;;;10.83;;
9657;SDS011;4867;48.112;11.622;2023-06-05T03:37:45;11.77;;;10.60;;
9657;SDS011;4867;48.112;11.622;2023-06-05T03:40:12;12.03;;;10.93;;
9657;SDS011;4867;48.112;11.622;2023-06-05T03:42:41;12.90;;;11.60;;
9657;SDS011;4867;48.112;11.622;2023-06-05T03:45:08;12.03;;;11.03;;
9657;SDS011;4867;48.112;11.622;2023-06-05T03:47:38;11.13;;;10.20;;
9657;SDS011;4867;48.112;11.622;2023-06-05T03:50:08;11.23;;;10.13;;
9657;SDS011;4867;48.112;11.622;2023-06-05T03:52:39;12.33;;;11.27;;
9657;SDS011;4867;48.112;11.622;2023-06-05T03:55:08;11.10;;;10.00;;
9657;SDS011;4867;48.112;11.622;2023-06-05T03:57:37;13.10;;;11.87;;
9657;SDS011;4867;48.112;11.622;2023-06-05T04:00:07;11.23;;;10.23;;
9657;SDS011;4867;48.112;11.622;2023-06-05T04:02:50;13.27;;;11.50;;
9657;SDS011;4867;48.112;11.622;2023-06-05T04:05:18;11.13;;;10.03;;
9657;SDS011;4867;48.112;11.622;2023-06-05T04:07:45;11.87;;;10.77;;
9657;SDS011;4867;48.112;11.622;2023-06-05T04:10:12;11.37;;;10.27;;
9657;SDS011;4867;48.112;11.622;2023-06-05T04:12:40;12.47;;;11.27;;
9657;SDS011;4867;48.112;11.622;2023-06-05T04:15:07;13.97;;;12.47;;
9657;SDS011;4867;48.112;11.622;2023-06-05T04:17:36;12.67;;;11.47;;
9657;SDS011;4867;48.112;11.622;2023-06-05T04:20:05;12.23;;;10.77;;
9657;SDS011;4867;48.112;11.622;2023-06-05T04:22:36;12.70;;;11.53;;
9657;SDS011;4867;48.112;11.622;2023-06-05T04:25:03;12.23;;;11.13;;
9657;SDS011;4867;48.112;11.622;2023-06-05T04:27:31;11.83;;;10.63;;
9657;SDS011;4867;48.112;11.622;2023-06-05T04:29:58;12.97;;;11.67;;
9657;SDS011;4867;48.112;11.622;2023-06-05T04:32:26;12.00;;;10.90;;
9657;SDS011;4867;48.112;11.622;2023-06-05T04:34:53;12.90;;;11.60;;
9657;SDS011;4867;48.112;11.622;2023-06-05T04:37:20;13.37;;;12.07;;
9657;SDS011;4867;48.112;11.622;2023-06-05T04:39:48;12.33;;;11.30;;
9657;SDS011;4867;48.112;11.622;2023-06-05T04:42:15;13.97;;;11.40;;
9657;SDS011;4867;48.112;11.622;2023-06-05T04:44:47;11.80;;;10.70;;
9657;SDS011;4867;48.112;11.622;2023-06-05T04:47:23;13.30;;;12.00;;
9657;SDS011;4867;48.112;11.622;2023-06-05T04:49:51;13.37;;;12.07;;
9657;SDS011;4867;48.112;11.622;2023-06-05T04:52:21;13.53;;;11.60;;
9657;SDS011;4867;48.112;11.622;2023-06-05T04:54:49;12.33;;;11.13;;
9657;SDS011;4867;48.112;11.622;2023-06-05T04:57:17;14.33;;;11.13;;
9657;SDS011;4867;48.112;11.622;2023-06-05T04:59:45;12.10;;;10.83;;
9657;SDS011;4867;48.112;11.622;2023-06-05T05:02:14;12.27;;;11.17;;
9657;SDS011;4867;48.112;11.622;2023-06-05T05:04:43;12.17;;;11.00;;
9657;SDS011;4867;48.112;11.622;2023-06-05T05:07:11;12.23;;;11.00;;
9657;SDS011;4867;48.112;11.622;2023-06-05T05:09:43;12.90;;;10.37;;
9657;SDS011;4867;48.112;11.622;2023-06-05T05:12:12;11.77;;;10.67;;
9657;SDS011;4867;48.112;11.622;2023-06-05T05:14:39;12.27;;;11.07;;
9657;SDS011;4867;48.112;11.622;2023-06-05T05:17:06;11.83;;;10.63;;
9657;SDS011;4867;48.112;11.622;2023-06-05T05:19:35;12.90;;;10.70;;
9657;SDS011;4867;48.112;11.622;2023-06-05T05:22:06;12.20;;;10.87;;
9657;SDS011;4867;48.112;11.622;2023-06-05T05:24:34;13.00;;;10.60;;
9657;SDS011;4867;48.112;11.622;2023-06-05T05:27:02;11.73;;;10.17;;
9657;SDS011;4867;48.112;11.622;2023-06-05T05:29:30;12.07;;;10.00;;
9657;SDS011;4867;48.112;11.622;2023-06-05T05:32:01;11.63;;;10.43;;
9657;SDS011;4867;48.112;11.622;2023-06-05T05:34:29;12.07;;;9.93;;
9657;SDS011;4867;48.112;11.622;2023-06-05T05:36:57;11.40;;;9.97;;
9657;SDS011;4867;48.112;11.622;2023-06-05T05:39:24;11.00;;;9.37;;
9657;SDS011;4867;48.112;11.622;2023-06-05T05:41:52;10.63;;;9.63;;
9657;SDS011;4867;48.112;11.622;2023-06-05T05:44:19;11.07;;;10.07;;
9657;SDS011;4867;48.112;11.622;2023-06-05T05:46:47;10.63;;;9.53;;
9657;SDS011;4867;48.112;11.622;2023-06-05T05:49:14;10.57;;;9.53;;
9657;SDS011;4867;48.112;11.622;2023-06-05T05:51:41;10.67;;;9.63;;
9657;SDS011;4867;48.112;11.622;2023-06-05T05:54:09;10.67;;;9.63;;
9657;SDS011;4867;48.112;11.622;2023-06-05T05:56:36;12.10;;;9.70;;
9657;SDS011;4867;48.112;11.622;2023-06-05T05:59:03;10.43;;;9.43;;
9657;SDS011;4867;48.112;11.622;2023-06-05T06:01:31;10.83;;;9.37;;
9657;SDS011;4867;48.112;11.622;2023-06-05T06:03:58;10.37;;;9.17;;
9657;SDS011;4867;48.112;11.622;2023-06-05T06:06:26;10.17;;;9.17;;
9657;SDS011;4867;48.112;11.622;2023-06-05T06:08:54;11.37;;;9.87;;
9657;SDS011;4867;48.112;11.622;2023-06-05T06:11:21;9.93;;;8.93;;
9657;SDS011;4867;48.112;11.622;2023-06-05T06:13:48;10.23;;;9.20;;
9657;SDS011;4867;48.112;11.622;2023-06-05T06:16:16;10.90;;;10.00;;
9657;SDS011;4867;48.112;11.622;2023-06-05T06:18:43;11.07;;;9.90;;
9657;SDS011;4867;48.112;11.622;2023-06-05T06:21:12;10.67;;;9.57;;
9657;SDS011;4867;48.112;11.622;2023-06-05T06:23:39;13.13;;;9.50;;
9657;SDS011;4867;48.112;11.622;2023-06-05T06:26:07;12.53;;;9.20;;
9657;SDS011;4867;48.112;11.622;2023-06-05T06:28:34;10.83;;;9.57;;
9657;SDS011;4867;48.112;11.622;2023-06-05T06:31:02;12.37;;;9.40;;
9657;SDS011;4867;48.112;11.622;2023-06-05T06:33:29;11.23;;;9.77;;
9657;SDS011;4867;48.112;11.622;2023-06-05T06:35:56;10.50;;;9.60;;
9657;SDS011;4867;48.112;11.622;2023-06-05T06:38:25;11.37;;;10.30;;
9657;SDS011;4867;48.112;11.622;2023-06-05T06:40:57;12.50;;;9.37;;
9657;SDS011;4867;48.112;11.622;2023-06-05T06:43:25;10.23;;;9.07;;
9657;SDS011;4867;48.112;11.622;2023-06-05T06:46:01;10.97;;;9.73;;
9657;SDS011;4867;48.112;11.622;2023-06-05T06:48:28;12.60;;;9.87;;
9657;SDS011;4867;48.112;11.622;2023-06-05T06:50:56;11.40;;;9.60;;
9657;SDS011;4867;48.112;11.622;2023-06-05T06:53:23;9.93;;;9.00;;
9657;SDS011;4867;48.112;11.622;2023-06-05T06:55:51;10.07;;;9.17;;
9657;SDS011;4867;48.112;11.622;2023-06-05T06:58:18;9.97;;;9.07;;
9657;SDS011;4867;48.112;11.622;2023-06-05T07:00:45;12.43;;;9.80;;
9657;SDS011;4867;48.112;11.622;2023-06-05T07:03:14;11.77;;;9.27;;
9657;SDS011;4867;48.112;11.622;2023-06-05T07:05:41;15.10;;;9.47;;
9657;SDS011;4867;48.112;11.622;2023-06-05T07:08:08;10.40;;;9.13;;
9657;SDS011;4867;48.112;11.622;2023-06-05T07:10:36;10.80;;;9.73;;
9657;SDS011;4867;48.112;11.622;2023-06-05T07:13:03;9.90;;;8.73;;
9657;SDS011;4867;48.112;11.622;2023-06-05T07:15:30;11.53;;;9.60;;
9657;SDS011;4867;48.112;11.622;2023-06-05T07:17:58;12.40;;;9.03;;
9657;SDS011;4867;48.112;11.622;2023-06-05T07:20:25;10.43;;;9.43;;
9657;SDS011;4867;48.112;11.622;2023-06-05T07:22:52;10.67;;;9.57;;
9657;SDS011;4867;48.112;11.622;2023-06-05T07:25:19;11.00;;;9.93;;
9657;SDS011;4867;48.112;11.622;2023-06-05T07:27:49;12.67;;;10.23;;
9657;SDS011;4867;48.112;11.622;2023-06-05T07:30:16;11.73;;;10.47;;
9657;SDS011;4867;48.112;11.622;2023-06-05T07:32:44;11.37;;;10.17;;
9657;SDS011;4867;48.112;11.622;2023-06-05T07:35:12;10.37;;;9.40;;
9657;SDS011;4867;48.112;11.622;2023-06-05T07:37:41;10.83;;;9.53;;
9657;SDS011;4867;48.112;11.622;2023-06-05T07:40:08;12.37;;;9.80;;
9657;SDS011;4867;48.112;11.622;2023-06-05T07:42:37;10.53;;;9.53;;
9657;SDS011;4867;48.112;11.622;2023-06-05T07:45:04;11.13;;;9.23;;
9657;SDS011;4867;48.112;11.622;2023-06-05T07:47:32;10.37;;;9.27;;
9657;SDS011;4867;48.112;11.622;2023-06-05T07:50:00;9.80;;;8.80;;
9657;SDS011;4867;48.112;11.622;2023-06-05T07:52:31;12.23;;;8.53;;
9657;SDS011;4867;48.112;11.622;2023-06-05T07:54:58;9.63;;;8.20;;
9657;SDS011;4867;48.112;11.622;2023-06-05T07:57:26;8.97;;;8.07;;
9657;SDS011;4867;48.112;11.622;2023-06-05T07:59:56;9.43;;;8.37;;
9657;SDS011;4867;48.112;11.622;2023-06-05T08:02:23;10.03;;;9.23;;
9657;SDS011;4867;48.112;11.622;2023-06-05T08:04:51;10.50;;;9.40;;
9657;SDS011;4867;48.112;11.622;2023-06-05T08:07:18;11.07;;;9.90;;
9657;SDS011;4867;48.112;11.622;2023-06-05T08:09:45;10.03;;;9.13;;
9657;SDS011;4867;48.112;11.622;2023-06-05T08:12:13;9.63;;;8.73;;
9657;SDS011;4867;48.112;11.622;2023-06-05T08:14:40;9.10;;;8.13;;
9657;SDS011;4867;48.112;11.622;2023-06-05T08:17:07;7.53;;;6.93;;
9657;SDS011;4867;48.112;11.622;2023-06-05T08:19:35;8.80;;;7.93;;
9657;SDS011;4867;48.112;11.622;2023-06-05T08:22:02;9.73;;;8.17;;
9657;SDS011;4867;48.112;11.622;2023-06-05T08:24:31;9.03;;;8.23;;
9657;SDS011;4867;48.112;11.622;2023-06-05T08:26:58;8.57;;;7.77;;
9657;SDS011;4867;48.112;11.622;2023-06-05T08:29:27;13.17;;;7.40;;
9657;SDS011;4867;48.112;11.622;2023-06-05T08:31:54;8.57;;;7.60;;
9657;SDS011;4867;48.112;11.622;2023-06-05T08:34:22;8.60;;;7.23;;
9657;SDS011;4867;48.112;11.622;2023-06-05T08:36:51;10.17;;;7.23;;
9657;SDS011;4867;48.112;11.622;2023-06-05T08:39:18;8.47;;;7.67;;
9657;SDS011;4867;48.112;11.622;2023-06-05T08:41:46;10.73;;;7.60;;
9657;SDS011;4867;48.112;11.622;2023-06-05T08:44:18;8.10;;;7.47;;
9657;SDS011;4867;48.112;11.622;2023-06-05T08:46:45;10.40;;;7.70;;
9657;SDS011;4867;48.112;11.622;2023-06-05T08:49:13;8.67;;;7.77;;
9657;SDS011;4867;48.112;11.622;2023-06-05T08:51:47;7.53;;;6.50;;
9657;SDS011;4867;48.112;11.622;2023-06-05T08:54:18;8.63;;;7.30;;
9657;SDS011;4867;48.112;11.622;2023-06-05T08:56:47;8.33;;;7.37;;
9657;SDS011;4867;48.112;11.622;2023-06-05T08:59:16;8.50;;;7.67;;
9657;SDS011;4867;48.112;11.622;2023-06-05T09:01:46;8.23;;;7.40;;
9657;SDS011;4867;48.112;11.622;2023-06-05T09:04:14;8.87;;;7.73;;
9657;SDS011;4867;48.112;11.622;2023-06-05T09:06:45;15.40;;;7.80;;
9657;SDS011;4867;48.112;11.622;2023-06-05T09:09:14;8.40;;;7.60;;
9657;SDS011;4867;48.112;11.622;2023-06-05T09:11:42;10.23;;;7.50;;
9657;SDS011;4867;48.112;11.622;2023-06-05T09:14:09;8.23;;;6.77;;
9657;SDS011;4867;48.112;11.622;2023-06-05T09:19:05;10.03;;;7.57;;
9657;SDS011;4867;48.112;11.622;2023-06-05T09:21:33;9.90;;;7.60;;
9657;SDS011;4867;48.112;11.622;2023-06-05T09:24:11;8.80;;;8.00;;
9657;SDS011;4867;48.112;11.622;2023-06-05T09:29:23;9.47;;;7.80;;
9657;SDS011;4867;48.112;11.622;2023-06-05T09:32:05;8.10;;;6.83;;
9657;SDS011;4867;48.112;11.622;2023-06-05T09:34:42;10.27;;;7.23;;
9657;SDS011;4867;48.112;11.622;2023-06-05T09:37:11;8.07;;;7.27;;
9657;SDS011;4867;48.112;11.622;2023-06-05T09:39:40;8.17;;;7.37;;
9657;SDS011;4867;48.112;11.622;2023-06-05T09:42:11;9.23;;;7.43;;
9657;SDS011;4867;48.112;11.622;2023-06-05T09:44:38;8.60;;;6.70;;
9657;SDS011;4867;48.112;11.622;2023-06-05T09:47:07;8.23;;;7.43;;
9657;SDS011;4867;48.112;11.622;2023-06-05T09:52:08;8.30;;;6.80;;
9657;SDS011;4867;48.112;11.622;2023-06-05T09:54:38;8.10;;;7.20;;
9657;SDS011;4867;48.112;11.622;2023-06-05T09:57:14;8.17;;;6.50;;
9657;SDS011;4867;48.112;11.622;2023-06-05T09:59:52;8.53;;;7.63;;
9657;SDS011;4867;48.112;11.622;2023-06-05T10:02:21;9.07;;;6.80;;
9657;SDS011;4867;48.112;11.622;2023-06-05T10:04:54;6.57;;;5.97;;
9657;SDS011;4867;48.112;11.622;2023-06-05T10:07:26;7.67;;;6.90;;
9657;SDS011;4867;48.112;11.622;2023-06-05T10:09:54;7.10;;;6.40;;
9657;SDS011;4867;48.112;11.622;2023-06-05T10:12:22;8.63;;;6.93;;
9657;SDS011;4867;48.112;11.622;2023-06-05T10:14:51;7.50;;;6.67;;
9657;SDS011;4867;48.112;11.622;2023-06-05T10:17:19;9.65;;;6.88;;
9657;SDS011;4867;48.112;11.622;2023-06-05T10:19:47;10.77;;;6.47;;
9657;SDS011;4867;48.112;11.622;2023-06-05T10:22:16;8.20;;;6.93;;
9657;SDS011;4867;48.112;11.622;2023-06-05T10:24:50;10.05;;;7.07;;
9657;SDS011;4867;48.112;11.622;2023-06-05T10:27:37;9.65;;;7.38;;
9657;SDS011;4867;48.112;11.622;2023-06-05T10:38:32;7.65;;;7.00;;
9657;SDS011;4867;48.112;11.622;2023-06-05T10:41:01;7.50;;;6.80;;
9657;SDS011;4867;48.112;11.622;2023-06-05T10:43:31;8.88;;;6.93;;
9657;SDS011;4867;48.112;11.622;2023-06-05T10:46:00;8.60;;;6.88;;
9657;SDS011;4867;48.112;11.622;2023-06-05T10:49:18;10.25;;;6.80;;
9657;SDS011;4867;48.112;11.622;2023-06-05T10:52:11;8.52;;;6.72;;
9657;SDS011;4867;48.112;11.622;2023-06-05T10:54:53;6.68;;;6.05;;
9657;SDS011;4867;48.112;11.622;2023-06-05T10:57:17;7.25;;;6.45;;
9657;SDS011;4867;48.112;11.622;2023-06-05T10:59:46;8.95;;;6.50;;
9657;SDS011;4867;48.112;11.622;2023-06-05T11:02:33;9.25;;;6.68;;
9657;SDS011;4867;48.112;11.622;2023-06-05T11:05:13;7.28;;;6.60;;
9657;SDS011;4867;48.112;11.622;2023-06-05T11:07:41;7.72;;;6.93;;
9657;SDS011;4867;48.112;11.622;2023-06-05T11:10:15;7.97;;;7.22;;
9657;SDS011;4867;48.112;11.622;2023-06-05T11:21:00;12.60;;;7.35;;
9657;SDS011;4867;48.112;11.622;2023-06-05T11:23:28;8.57;;;7.00;;
9657;SDS011;4867;48.112;11.622;2023-06-05T11:25:56;7.18;;;6.32;;
9657;SDS011;4867;48.112;11.622;2023-06-05T11:28:37;7.45;;;6.70;;
9657;SDS011;4867;48.112;11.622;2023-06-05T11:31:06;7.22;;;6.63;;
9657;SDS011;4867;48.112;11.622;2023-06-05T11:33:34;7.15;;;6.05;;
9657;SDS011;4867;48.112;11.622;2023-06-05T11:36:03;10.63;;;6.40;;
9657;SDS011;4867;48.112;11.622;2023-06-05T11:38:32;7.78;;;5.97;;
9657;SDS011;4867;48.112;11.622;2023-06-05T11:41:04;7.67;;;6.90;;
9657;SDS011;4867;48.112;11.622;2023-06-05T11:43:40;6.80;;;6.20;;
9657;SDS011;4867;48.112;11.622;2023-06-05T11:46:09;6.82;;;6.13;;
9657;SDS011;4867;48.112;11.622;2023-06-05T11:48:45;6.40;;;5.63;;
9657;SDS011;4867;48.112;11.622;2023-06-05T11:51:13;6.43;;;5.60;;
9657;SDS011;4867;48.112;11.622;2023-06-05T11:53:44;7.13;;;6.17;;
9657;SDS011;4867;48.112;11.622;2023-06-05T11:56:14;7.40;;;6.20;;
9657;SDS011;4867;48.112;11.622;2023-06-05T11:58:45;6.80;;;5.70;;
9657;SDS011;4867;48.112;11.622;2023-06-05T12:01:18;6.43;;;5.88;;
9657;SDS011;4867;48.112;11.622;2023-06-05T12:04:03;7.97;;;5.78;;
9657;SDS011;4867;48.112;11.622;2023-06-05T12:06:32;6.60;;;6.10;;
9657;SDS011;4867;48.112;11.622;2023-06-05T12:09:07;6.32;;;5.82;;
9657;SDS011;4867;48.112;11.622;2023-06-05T12:11:40;7.18;;;5.60;;
9657;SDS011;4867;48.112;11.622;2023-06-05T12:14:09;6.00;;;5.40;;
9657;SDS011;4867;48.112;11.622;2023-06-05T12:16:39;7.82;;;5.60;;
9657;SDS011;4867;48.112;11.622;2023-06-05T12:19:14;6.63;;;5.82;;
9657;SDS011;4867;48.112;11.622;2023-06-05T12:21:44;6.80;;;5.97;;
9657;SDS011;4867;48.112;11.622;2023-06-05T12:24:13;6.82;;;5.85;;
9657;SDS011;4867;48.112;11.622;2023-06-05T12:29:28;6.47;;;5.78;;
9657;SDS011;4867;48.112;11.622;2023-06-05T12:32:01;8.52;;;5.63;;
9657;SDS011;4867;48.112;11.622;2023-06-05T12:37:24;6.30;;;5.70;;
9657;SDS011;4867;48.112;11.622;2023-06-05T12:39:56;6.88;;;6.03;;
9657;SDS011;4867;48.112;11.622;2023-06-05T12:42:24;6.47;;;5.63;;
9657;SDS011;4867;48.112;11.622;2023-06-05T12:44:52;5.97;;;5.30;;
9657;SDS011;4867;48.112;11.622;2023-06-05T12:47:20;7.55;;;5.88;;
9657;SDS011;4867;48.112;11.622;2023-06-05T12:49:47;6.28;;;5.60;;
9657;SDS011;4867;48.112;11.622;2023-06-05T12:52:14;6.05;;;5.22;;
9657;SDS011;4867;48.112;11.622;2023-06-05T12:54:42;6.10;;;5.38;;
9657;SDS011;4867;48.112;11.622;2023-06-05T12:57:09;6.63;;;5.57;;
9657;SDS011;4867;48.112;11.622;2023-06-05T12:59:39;5.88;;;5.38;;
9657;SDS011;4867;48.112;11.622;2023-06-05T13:02:06;5.82;;;5.32;;
9657;SDS011;4867;48.112;11.622;2023-06-05T13:04:34;5.38;;;4.88;;
9657;SDS011;4867;48.112;11.622;2023-06-05T13:07:02;6.75;;;6.03;;
9657;SDS011;4867;48.112;11.622;2023-06-05T13:09:31;5.70;;;5.20;;
9657;SDS011;4867;48.112;11.622;2023-06-05T13:11:59;5.60;;;4.95;;
9657;SDS011;4867;48.112;11.622;2023-06-05T13:14:27;6.40;;;5.70;;
9657;SDS011;4867;48.112;11.622;2023-06-05T13:16:54;5.93;;;5.05;;
9657;SDS011;4867;48.112;11.622;2023-06-05T13:19:23;5.22;;;4.72;;
9657;SDS011;4867;48.112;11.622;2023-06-05T13:21:51;5.82;;;5.32;;
9657;SDS011;4867;48.112;11.622;2023-06-05T13:24:19;6.43;;;4.80;;
9657;SDS011;4867;48.112;11.622;2023-06-05T13:26:47;7.78;;;5.00;;
9657;SDS011;4867;48.112;11.622;2023-06-05T13:29:14;5.75;;;5.20;;
9657;SDS011;4867;48.112;11.622;2023-06-05T13:31:42;5.82;;;5.32;;
9657;SDS011;4867;48.112;11.622;2023-06-05T13:34:09;5.97;;;5.45;;
9657;SDS011;4867;48.112;11.622;2023-06-05T13:36:38;5.20;;;4.80;;
9657;SDS011;4867;48.112;11.622;2023-06-05T13:39:06;5.55;;;5.15;;
9657;SDS011;4867;48.112;11.622;2023-06-05T13:41:33;5.45;;;5.05;;
9657;SDS011;4867;48.112;11.622;2023-06-05T13:44:01;5.32;;;4.82;;
9657;SDS011;4867;48.112;11.622;2023-06-05T13:46:29;6.28;;;4.72;;
9657;SDS011;4867;48.112;11.622;2023-06-05T13:48:56;5.45;;;4.93;;
9657;SDS011;4867;48.112;11.622;2023-06-05T13:51:26;7.93;;;5.18;;
9657;SDS011;4867;48.112;11.622;2023-06-05T13:53:54;5.22;;;4.80;;
9657;SDS011;4867;48.112;11.622;2023-06-05T13:56:24;5.53;;;4.68;;
9657;SDS011;4867;48.112;11.622;2023-06-05T13:58:52;4.95;;;4.35;;
9657;SDS011;4867;48.112;11.622;2023-06-05T14:01:19;5.57;;;4.68;;
9657;SDS011;4867;48.112;11.622;2023-06-05T14:03:47;4.90;;;4.50;;
9657;SDS011;4867;48.112;11.622;2023-06-05T14:06:18;5.15;;;4.03;;
9657;SDS011;4867;48.112;11.622;2023-06-05T14:08:45;5.00;;;4.50;;
9657;SDS011;4867;48.112;11.622;2023-06-05T14:11:13;5.93;;;4.35;;
9657;SDS011;4867;48.112;11.622;2023-06-05T14:13:41;6.32;;;4.75;;
9657;SDS011;4867;48.112;11.622;2023-06-05T14:16:09;4.72;;;4.18;;
9657;SDS011;4867;48.112;11.622;2023-06-05T14:18:39;5.07;;;4.20;;
9657;SDS011;4867;48.112;11.622;2023-06-05T14:21:06;8.10;;;4.80;;
9657;SDS011;4867;48.112;11.622;2023-06-05T14:23:33;4.93;;;4.50;;
9657;SDS011;4867;48.112;11.622;2023-06-05T14:26:01;5.13;;;4.72;;
9657;SDS011;4867;48.112;11.622;2023-06-05T14:28:28;5.18;;;4.22;;
9657;SDS011;4867;48.112;11.622;2023-06-05T14:30:55;5.40;;;4.05;;
9657;SDS011;4867;48.112;11.622;2023-06-05T14:33:23;5.32;;;4.80;;
9657;SDS011;4867;48.112;11.622;2023-06-05T14:35:50;6.10;;;4.40;;
9657;SDS011;4867;48.112;11.622;2023-06-05T14:38:17;5.28;;;4.60;;
9657;SDS011;4867;48.112;11.622;2023-06-05T14:40:45;5.33;;;4.83;;
9657;SDS011;4867;48.112;11.622;2023-06-05T14:43:12;5.05;;;4.63;;
9657;SDS011;4867;48.112;11.622;2023-06-05T14:45:40;7.00;;;4.65;;
9657;SDS011;4867;48.112;11.622;2023-06-05T14:48:09;6.30;;;4.57;;
9657;SDS011;4867;48.112;11.622;2023-06-05T14:50:38;5.75;;;5.25;;
9657;SDS011;4867;48.112;11.622;2023-06-05T14:53:05;5.20;;;4.72;;
9657;SDS011;4867;48.112;11.622;2023-06-05T14:55:32;7.05;;;5.50;;
9657;SDS011;4867;48.112;11.622;2023-06-05T14:57:59;7.07;;;5.30;;
9657;SDS011;4867;48.112;11.622;2023-06-05T15:00:27;6.18;;;4.78;;
9657;SDS011;4867;48.112;11.622;2023-06-05T15:02:56;5.82;;;4.97;;
9657;SDS011;4867;48.112;11.622;2023-06-05T15:05:24;6.35;;;4.97;;
9657;SDS011;4867;48.112;11.622;2023-06-05T15:07:51;5.65;;;4.65;;
9657;SDS011;4867;48.112;11.622;2023-06-05T15:10:18;6.57;;;5.20;;
9657;SDS011;4867;48.112;11.622;2023-06-05T15:12:46;6.00;;;5.50;;
9657;SDS011;4867;48.112;11.622;2023-06-05T15:15:13;5.10;;;4.47;;
9657;SDS011;4867;48.112;11.622;2023-06-05T15:17:46;7.72;;;5.05;;
9657;SDS011;4867;48.112;11.622;2023-06-05T15:20:14;5.90;;;5.40;;
9657;SDS011;4867;48.112;11.622;2023-06-05T15:22:42;5.72;;;5.20;;
9657;SDS011;4867;48.112;11.622;2023-06-05T15:25:09;6.05;;;5.50;;
9657;SDS011;4867;48.112;11.622;2023-06-05T15:27:36;6.00;;;5.45;;
9657;SDS011;4867;48.112;11.622;2023-06-05T15:30:05;6.25;;;5.55;;
9657;SDS011;4867;48.112;11.622;2023-06-05T15:32:34;6.45;;;5.50;;
9657;SDS011;4867;48.112;11.622;2023-06-05T15:35:02;6.28;;;5.68;;
9657;SDS011;4867;48.112;11.622;2023-06-05T15:37:29;5.63;;;5.20;;
9657;SDS011;4867;48.112;11.622;2023-06-05T15:39:58;8.07;;;5.53;;